PWSweather.com
Personal Weather Stations
Station Observations
IHTIMAN1
Neighbourhood 1, IhtimanBG 2050

Neighbourhood 1IhtimanBG 2050

Lat: 42.436852, Lon: 23.817921

Elevation: 2066

Station Type: Oregon Scientific WMR968

http://ihtiman-meteo.com

High Low Average
Temperature 78.4°F25.8°C 55.5°F13.1°C 63.8°F17.7°C
Dew Point 66.3°F19.1°C 53.5°F11.9°C 58.3°F14.6°C
Winds 9.2 mph 14.8 kmh Calm Calm 1.0 mph SSE1.6 kmh SSE
Wind Gusts 15.0 mph24.1 kmh -- 2.0 mph3.2 kmh
Humidity 98% 47% 84%
Pressure 30.03 in1016.9 mb 29.91 in1012.9 mb -
Precipitation 0.14 in3.6 mm - -
Hour Temp Dew Point Humidity Winds Wind Gusts Pressure Precip Precip Rate Daily Precip Total
12:00 AM 57.4°F14.1°C 56.9°F13.8°C 98% Calm Calm -- 29.94 in1013.9 mb - 0.00 in0.0 mm 0.00 in0.0 mm
12:10 AM 57.2°F14.0°C 56.6°F13.7°C 98% Calm Calm -- 29.94 in1013.9 mb - 0.00 in0.0 mm 0.00 in0.0 mm
12:20 AM 57.2°F14.0°C 56.6°F13.7°C 98% Calm Calm -- 29.94 in1013.9 mb - 0.00 in0.0 mm 0.00 in0.0 mm
12:30 AM 57.0°F13.9°C 56.4°F13.6°C 98% Calm Calm -- 29.94 in1013.9 mb - 0.00 in0.0 mm 0.00 in0.0 mm
12:40 AM 56.7°F13.7°C 56.1°F13.4°C 98% Calm Calm -- 29.94 in1013.9 mb - 0.00 in0.0 mm 0.00 in0.0 mm
12:50 AM 56.3°F13.5°C 55.7°F13.2°C 98% Calm Calm -- 29.94 in1013.9 mb - 0.00 in0.0 mm 0.00 in0.0 mm
01:00 AM 56.1°F13.4°C 55.6°F13.1°C 98% Calm Calm -- 29.94 in1013.9 mb - 0.00 in0.0 mm 0.00 in0.0 mm
01:10 AM 56.3°F13.5°C 55.7°F13.2°C 98% Calm Calm -- 29.94 in1013.9 mb - 0.00 in0.0 mm 0.00 in0.0 mm
01:20 AM 56.3°F13.5°C 55.7°F13.2°C 98% Calm Calm -- 29.94 in1013.9 mb - 0.00 in0.0 mm 0.00 in0.0 mm
01:30 AM 56.3°F13.5°C 55.7°F13.2°C 98% Calm Calm -- 29.94 in1013.9 mb - 0.00 in0.0 mm 0.00 in0.0 mm
01:40 AM 55.8°F13.2°C 55.2°F12.9°C 98% Calm Calm -- 29.94 in1013.9 mb - 0.00 in0.0 mm 0.00 in0.0 mm
01:50 AM 55.5°F13.1°C 54.9°F12.7°C 98% Calm Calm -- 29.94 in1013.9 mb - 0.00 in0.0 mm 0.00 in0.0 mm
02:00 AM 55.6°F13.1°C 55.1°F12.8°C 98% Calm Calm -- 29.94 in1013.9 mb - 0.00 in0.0 mm 0.00 in0.0 mm
02:10 AM 55.8°F13.2°C 55.2°F12.9°C 98% Calm Calm -- 29.94 in1013.9 mb - 0.00 in0.0 mm 0.00 in0.0 mm
02:20 AM 55.6°F13.1°C 55.0°F12.8°C 98% Calm Calm -- 29.91 in1012.9 mb - 0.00 in0.0 mm 0.00 in0.0 mm
02:30 AM 55.6°F13.1°C 55.0°F12.8°C 98% Calm Calm -- 29.94 in1013.9 mb - 0.00 in0.0 mm 0.00 in0.0 mm
02:40 AM 55.8°F13.2°C 55.2°F12.9°C 98% Calm Calm -- 29.94 in1013.9 mb - 0.00 in0.0 mm 0.00 in0.0 mm
02:50 AM 55.9°F13.3°C 55.4°F13.0°C 98% Calm Calm -- 29.94 in1013.9 mb - 0.00 in0.0 mm 0.00 in0.0 mm
03:00 AM 55.9°F13.3°C 55.4°F13.0°C 98% Calm Calm -- 29.91 in1012.9 mb - 0.00 in0.0 mm 0.00 in0.0 mm
03:10 AM 55.9°F13.3°C 55.4°F13.0°C 98% Calm Calm -- 29.91 in1012.9 mb - 0.00 in0.0 mm 0.00 in0.0 mm
03:20 AM 55.9°F13.3°C 55.4°F13.0°C 98% Calm Calm -- 29.91 in1012.9 mb - 0.00 in0.0 mm 0.00 in0.0 mm
03:30 AM 55.9°F13.3°C 55.4°F13.0°C 98% Calm Calm -- 29.91 in1012.9 mb - 0.00 in0.0 mm 0.00 in0.0 mm
03:40 AM 55.9°F13.3°C 55.4°F13.0°C 98% Calm Calm -- 29.91 in1012.9 mb - 0.00 in0.0 mm 0.00 in0.0 mm
03:50 AM 55.9°F13.3°C 55.4°F13.0°C 98% Calm Calm -- 29.91 in1012.9 mb - 0.00 in0.0 mm 0.00 in0.0 mm
04:00 AM 56.1°F13.4°C 55.6°F13.1°C 98% Calm Calm -- 29.94 in1013.9 mb - 0.00 in0.0 mm 0.00 in0.0 mm
04:10 AM 55.9°F13.3°C 55.4°F13.0°C 98% Calm Calm 3.5 mph5.6 kmh 29.94 in1013.9 mb - 0.00 in0.0 mm 0.00 in0.0 mm
04:20 AM 55.9°F13.3°C 55.3°F12.9°C 98% Calm Calm -- 29.94 in1013.9 mb - 0.00 in0.0 mm 0.00 in0.0 mm
04:30 AM 55.8°F13.2°C 55.2°F12.9°C 98% Calm Calm -- 29.94 in1013.9 mb - 0.00 in0.0 mm 0.00 in0.0 mm
04:40 AM 55.8°F13.2°C 55.2°F12.9°C 98% Calm Calm -- 29.94 in1013.9 mb - 0.00 in0.0 mm 0.00 in0.0 mm
04:50 AM 55.8°F13.2°C 55.2°F12.9°C 98% Calm Calm -- 29.94 in1013.9 mb - 0.00 in0.0 mm 0.00 in0.0 mm
05:00 AM 55.8°F13.2°C 55.2°F12.9°C 98% Calm Calm -- 29.94 in1013.9 mb - 0.00 in0.0 mm 0.00 in0.0 mm
05:10 AM 55.9°F13.3°C 55.4°F13.0°C 98% Calm Calm -- 29.94 in1013.9 mb - 0.00 in0.0 mm 0.00 in0.0 mm
05:20 AM 55.9°F13.3°C 55.4°F13.0°C 98% Calm Calm -- 29.94 in1013.9 mb - 0.00 in0.0 mm 0.00 in0.0 mm
05:30 AM 55.9°F13.3°C 55.4°F13.0°C 98% Calm Calm -- 29.94 in1013.9 mb - 0.00 in0.0 mm 0.00 in0.0 mm
05:40 AM 55.9°F13.3°C 55.4°F13.0°C 98% Calm Calm -- 29.94 in1013.9 mb - 0.00 in0.0 mm 0.00 in0.0 mm
05:50 AM 55.9°F13.3°C 55.4°F13.0°C 98% Calm Calm -- 29.94 in1013.9 mb - 0.00 in0.0 mm 0.00 in0.0 mm
06:00 AM 55.9°F13.3°C 55.4°F13.0°C 98% Calm Calm -- 29.94 in1013.9 mb - 0.00 in0.0 mm 0.00 in0.0 mm
06:10 AM 56.3°F13.5°C 55.7°F13.2°C 98% Calm Calm -- 29.94 in1013.9 mb - 0.00 in0.0 mm 0.00 in0.0 mm
06:20 AM 56.5°F13.6°C 55.9°F13.3°C 98% Calm Calm -- 29.94 in1013.9 mb - 0.00 in0.0 mm 0.00 in0.0 mm
06:30 AM 56.6°F13.7°C 56.0°F13.3°C 98% Calm Calm -- 29.97 in1014.9 mb - 0.00 in0.0 mm 0.00 in0.0 mm
06:40 AM 57.2°F14.0°C 56.6°F13.7°C 98% Calm Calm -- 29.97 in1014.9 mb - 0.00 in0.0 mm 0.00 in0.0 mm
06:50 AM 57.2°F14.0°C 56.6°F13.7°C 98% Calm Calm -- 29.97 in1014.9 mb - 0.00 in0.0 mm 0.00 in0.0 mm
07:00 AM 57.3°F14.1°C 56.8°F13.8°C 98% Calm Calm -- 29.94 in1013.9 mb - 0.00 in0.0 mm 0.00 in0.0 mm
07:10 AM 57.2°F14.0°C 56.6°F13.7°C 98% Calm Calm -- 29.94 in1013.9 mb - 0.00 in0.0 mm 0.00 in0.0 mm
07:20 AM 57.7°F14.3°C 57.1°F13.9°C 98% Calm Calm -- 29.97 in1014.9 mb - 0.00 in0.0 mm 0.00 in0.0 mm
07:30 AM 58.3°F14.6°C 57.7°F14.3°C 98% Calm Calm -- 29.97 in1014.9 mb - 0.00 in0.0 mm 0.00 in0.0 mm
07:40 AM 58.8°F14.9°C 58.3°F14.6°C 98% Calm Calm -- 29.97 in1014.9 mb - 0.00 in0.0 mm 0.00 in0.0 mm
07:50 AM 59.1°F15.1°C 58.6°F14.8°C 98% Calm Calm -- 29.97 in1014.9 mb - 0.00 in0.0 mm 0.00 in0.0 mm
08:00 AM 59.9°F15.5°C 59.4°F15.2°C 98% Calm Calm -- 29.97 in1014.9 mb - 0.00 in0.0 mm 0.00 in0.0 mm
08:10 AM 61.6°F16.4°C 61.0°F16.1°C 98% Calm Calm 2.3 mph3.7 kmh 29.97 in1014.9 mb - 0.00 in0.0 mm 0.00 in0.0 mm
08:20 AM 63.0°F17.2°C 62.4°F16.9°C 98% Calm Calm -- 29.97 in1014.9 mb - 0.00 in0.0 mm 0.00 in0.0 mm
08:30 AM 63.3°F17.4°C 61.2°F16.2°C 93% Calm Calm 2.3 mph3.7 kmh 29.97 in1014.9 mb - 0.00 in0.0 mm 0.00 in0.0 mm
08:40 AM 64.0°F17.8°C 60.7°F15.9°C 89% 1.2 mph SSE1.9 kmh SSE 2.3 mph3.7 kmh 29.97 in1014.9 mb - 0.00 in0.0 mm 0.00 in0.0 mm
08:50 AM 64.3°F17.9°C 60.3°F15.7°C 87% 1.2 mph SSW1.9 kmh SSW 3.5 mph5.6 kmh 29.97 in1014.9 mb - 0.00 in0.0 mm 0.00 in0.0 mm
09:00 AM 64.7°F18.2°C 59.8°F15.4°C 84% Calm Calm 3.5 mph5.6 kmh 29.97 in1014.9 mb - 0.00 in0.0 mm 0.00 in0.0 mm
09:20 AM 66.8°F19.3°C 59.7°F15.4°C 78% Calm Calm 2.3 mph3.7 kmh 29.97 in1014.9 mb - 0.00 in0.0 mm 0.00 in0.0 mm
09:30 AM 69.3°F20.7°C 59.1°F15.1°C 70% Calm Calm -- 29.97 in1014.9 mb - 0.00 in0.0 mm 0.00 in0.0 mm
09:40 AM 70.5°F21.4°C 57.7°F14.3°C 64% Calm Calm -- 29.97 in1014.9 mb - 0.00 in0.0 mm 0.00 in0.0 mm
09:50 AM 70.3°F21.3°C 55.7°F13.2°C 60% Calm Calm 2.3 mph3.7 kmh 30.00 in1015.9 mb - 0.00 in0.0 mm 0.00 in0.0 mm
10:00 AM 71.2°F21.8°C 56.6°F13.7°C 60% 3.5 mph NNW5.6 kmh NNW 3.5 mph5.6 kmh 30.00 in1015.9 mb - 0.00 in0.0 mm 0.00 in0.0 mm
10:10 AM 74.1°F23.4°C 58.9°F14.9°C 59% 2.3 mph NE3.7 kmh NE 3.5 mph5.6 kmh 30.00 in1015.9 mb - 0.00 in0.0 mm 0.00 in0.0 mm
10:20 AM 72.5°F22.5°C 56.9°F13.8°C 58% Calm Calm 3.5 mph5.6 kmh 29.97 in1014.9 mb - 0.00 in0.0 mm 0.00 in0.0 mm
10:30 AM 71.8°F22.1°C 56.2°F13.4°C 58% 1.2 mph NW1.9 kmh NW 2.3 mph3.7 kmh 30.00 in1015.9 mb - 0.00 in0.0 mm 0.00 in0.0 mm
10:40 AM 72.8°F22.7°C 57.2°F14.0°C 58% 3.5 mph S5.6 kmh S 3.5 mph5.6 kmh 30.00 in1015.9 mb - 0.00 in0.0 mm 0.00 in0.0 mm
10:50 AM 75.0°F23.9°C 57.7°F14.3°C 55% 2.3 mph WSW3.7 kmh WSW 3.5 mph5.6 kmh 30.00 in1015.9 mb - 0.00 in0.0 mm 0.00 in0.0 mm
11:00 AM 74.0°F23.3°C 55.8°F13.2°C 53% 4.6 mph NNW7.4 kmh NNW 8.1 mph13.0 kmh 29.97 in1014.9 mb - 0.00 in0.0 mm 0.00 in0.0 mm
11:10 AM 72.0°F22.2°C 55.4°F13.0°C 56% 6.9 mph NW11.1 kmh NW 8.1 mph13.0 kmh 29.97 in1014.9 mb - 0.00 in0.0 mm 0.00 in0.0 mm
11:20 AM 70.6°F21.4°C 54.6°F12.6°C 57% 1.2 mph W1.9 kmh W 3.5 mph5.6 kmh 30.00 in1015.9 mb - 0.00 in0.0 mm 0.00 in0.0 mm
11:30 AM 70.5°F21.4°C 57.8°F14.3°C 64% 5.8 mph N9.3 kmh N 6.9 mph11.1 kmh 30.00 in1015.9 mb - 0.00 in0.0 mm 0.00 in0.0 mm
11:40 AM 70.5°F21.4°C 61.1°F16.2°C 72% 3.5 mph NNE5.6 kmh NNE 5.8 mph9.3 kmh 30.00 in1015.9 mb - 0.00 in0.0 mm 0.00 in0.0 mm
11:50 AM 72.8°F22.7°C 59.4°F15.2°C 63% 3.5 mph N5.6 kmh N 8.1 mph13.0 kmh 29.97 in1014.9 mb - 0.00 in0.0 mm 0.00 in0.0 mm
12:00 PM 72.8°F22.7°C 57.7°F14.3°C 59% Calm Calm -- 30.00 in1015.9 mb - 0.00 in0.0 mm 0.00 in0.0 mm
12:10 PM 73.1°F22.8°C 58.4°F14.7°C 60% Calm Calm -- 30.00 in1015.9 mb - 0.00 in0.0 mm 0.00 in0.0 mm
12:20 PM 73.0°F22.8°C 56.9°F13.8°C 57% Calm Calm 3.5 mph5.6 kmh 30.00 in1015.9 mb - 0.00 in0.0 mm 0.00 in0.0 mm
12:30 PM 73.6°F23.1°C 56.9°F13.8°C 56% 4.6 mph N7.4 kmh N 6.9 mph11.1 kmh 29.97 in1014.9 mb - 0.00 in0.0 mm 0.00 in0.0 mm
12:40 PM 75.5°F24.2°C 58.7°F14.8°C 56% 4.6 mph NNE7.4 kmh NNE 5.8 mph9.3 kmh 29.97 in1014.9 mb - 0.00 in0.0 mm 0.00 in0.0 mm
12:50 PM 75.3°F24.1°C 58.1°F14.5°C 55% 2.3 mph N3.7 kmh N 4.6 mph7.4 kmh 29.97 in1014.9 mb - 0.00 in0.0 mm 0.00 in0.0 mm
01:00 PM 75.9°F24.4°C 56.4°F13.6°C 51% 3.5 mph N5.6 kmh N 4.6 mph7.4 kmh 29.97 in1014.9 mb - 0.00 in0.0 mm 0.00 in0.0 mm
01:10 PM 73.6°F23.1°C 54.9°F12.7°C 52% 1.2 mph N1.9 kmh N 5.8 mph9.3 kmh 29.97 in1014.9 mb - 0.00 in0.0 mm 0.00 in0.0 mm
01:20 PM 77.1°F25.1°C 57.6°F14.2°C 51% 3.5 mph E5.6 kmh E 5.8 mph9.3 kmh 29.97 in1014.9 mb - 0.00 in0.0 mm 0.00 in0.0 mm
01:30 PM 78.0°F25.6°C 57.3°F14.1°C 49% 3.5 mph N5.6 kmh N 5.8 mph9.3 kmh 29.97 in1014.9 mb - 0.00 in0.0 mm 0.00 in0.0 mm
01:40 PM 78.4°F25.8°C 56.5°F13.6°C 47% 3.5 mph ENE5.6 kmh ENE 5.8 mph9.3 kmh 29.97 in1014.9 mb - 0.00 in0.0 mm 0.00 in0.0 mm
01:50 PM 75.2°F24.0°C 54.2°F12.3°C 48% 6.9 mph NNW11.1 kmh NNW 10.4 mph16.7 kmh 29.97 in1014.9 mb - 0.00 in0.0 mm 0.00 in0.0 mm
02:00 PM 75.7°F24.3°C 58.4°F14.7°C 55% 4.6 mph N7.4 kmh N 6.9 mph11.1 kmh 29.97 in1014.9 mb - 0.00 in0.0 mm 0.00 in0.0 mm
02:10 PM 78.2°F25.7°C 57.5°F14.2°C 49% 5.8 mph NNW9.3 kmh NNW 8.1 mph13.0 kmh 29.97 in1014.9 mb - 0.00 in0.0 mm 0.00 in0.0 mm
02:20 PM 77.3°F25.2°C 55.5°F13.1°C 47% 6.9 mph NW11.1 kmh NW 8.1 mph13.0 kmh 29.97 in1014.9 mb - 0.00 in0.0 mm 0.00 in0.0 mm
02:30 PM 73.9°F23.3°C 53.5°F11.9°C 49% 3.5 mph W5.6 kmh W 3.5 mph5.6 kmh 29.97 in1014.9 mb - 0.00 in0.0 mm 0.00 in0.0 mm
02:40 PM 73.0°F22.8°C 54.9°F12.7°C 53% 5.8 mph W9.3 kmh W 12.7 mph20.4 kmh 29.97 in1014.9 mb - 0.00 in0.0 mm 0.00 in0.0 mm
02:50 PM 67.0°F19.4°C 57.3°F14.1°C 71% 9.2 mph NW14.8 kmh NW 15.0 mph24.1 kmh 30.00 in1015.9 mb - 0.05 in1.3 mm 0.05 in1.3 mm
03:00 PM 63.5°F17.5°C 59.3°F15.2°C 86% 4.6 mph NNW7.4 kmh NNW 8.1 mph13.0 kmh 30.00 in1015.9 mb - 0.09 in2.3 mm 0.09 in2.3 mm
03:10 PM 63.5°F17.5°C 62.0°F16.7°C 95% 2.3 mph NW3.7 kmh NW 3.5 mph5.6 kmh 30.00 in1015.9 mb - 0.14 in3.6 mm 0.14 in3.6 mm
03:20 PM 64.4°F18.0°C 63.5°F17.5°C 97% Calm Calm -- 30.00 in1015.9 mb - 0.14 in3.6 mm 0.14 in3.6 mm
03:30 PM 66.6°F19.2°C 65.7°F18.7°C 97% Calm Calm 3.5 mph5.6 kmh 30.00 in1015.9 mb - 0.14 in3.6 mm 0.14 in3.6 mm
03:40 PM 66.8°F19.3°C 65.6°F18.7°C 96% 2.3 mph SE3.7 kmh SE 3.5 mph5.6 kmh 30.00 in1015.9 mb - 0.14 in3.6 mm 0.14 in3.6 mm
03:50 PM 66.3°F19.1°C 64.5°F18.1°C 94% 4.6 mph SE7.4 kmh SE 5.8 mph9.3 kmh 30.00 in1015.9 mb - 0.09 in2.3 mm 0.14 in3.6 mm
04:00 PM 68.4°F20.2°C 66.3°F19.1°C 93% 3.5 mph SE5.6 kmh SE 5.8 mph9.3 kmh 30.00 in1015.9 mb - 0.05 in1.3 mm 0.14 in3.6 mm
04:10 PM 66.9°F19.4°C 63.2°F17.3°C 88% 3.5 mph SE5.6 kmh SE 4.6 mph7.4 kmh 30.00 in1015.9 mb - 0.00 in0.0 mm 0.14 in3.6 mm
04:20 PM 68.0°F20.0°C 65.0°F18.3°C 90% 1.2 mph S1.9 kmh S 3.5 mph5.6 kmh 29.97 in1014.9 mb - 0.00 in0.0 mm 0.14 in3.6 mm
04:30 PM 68.9°F20.5°C 65.6°F18.7°C 89% 2.3 mph SSW3.7 kmh SSW 4.6 mph7.4 kmh 29.97 in1014.9 mb - 0.00 in0.0 mm 0.14 in3.6 mm
04:40 PM 70.2°F21.2°C 63.8°F17.7°C 80% 2.3 mph S3.7 kmh S 3.5 mph5.6 kmh 29.97 in1014.9 mb - 0.00 in0.0 mm 0.14 in3.6 mm
04:50 PM 70.2°F21.2°C 60.8°F16.0°C 72% 4.6 mph S7.4 kmh S 5.8 mph9.3 kmh 29.97 in1014.9 mb - 0.00 in0.0 mm 0.14 in3.6 mm
05:00 PM 71.1°F21.7°C 61.2°F16.2°C 71% 3.5 mph SE5.6 kmh SE 5.8 mph9.3 kmh 29.97 in1014.9 mb - 0.00 in0.0 mm 0.14 in3.6 mm
05:10 PM 70.0°F21.1°C 59.4°F15.2°C 69% Calm Calm -- 29.97 in1014.9 mb - 0.00 in0.0 mm 0.14 in3.6 mm
05:20 PM 69.1°F20.6°C 60.1°F15.6°C 73% Calm Calm 3.5 mph5.6 kmh 30.00 in1015.9 mb - 0.00 in0.0 mm 0.14 in3.6 mm
05:30 PM 69.2°F20.7°C 60.9°F16.1°C 75% Calm Calm 3.5 mph5.6 kmh 30.00 in1015.9 mb - 0.00 in0.0 mm 0.14 in3.6 mm
05:40 PM 68.8°F20.4°C 61.7°F16.5°C 78% 3.5 mph SW5.6 kmh SW 3.5 mph5.6 kmh 30.00 in1015.9 mb - 0.00 in0.0 mm 0.14 in3.6 mm
05:50 PM 68.1°F20.1°C 63.4°F17.4°C 85% 3.5 mph SW5.6 kmh SW 3.5 mph5.6 kmh 30.00 in1015.9 mb - 0.00 in0.0 mm 0.14 in3.6 mm
06:00 PM 68.1°F20.1°C 64.4°F18.0°C 88% Calm Calm -- 30.00 in1015.9 mb - 0.00 in0.0 mm 0.14 in3.6 mm
06:10 PM 69.0°F20.6°C 64.3°F17.9°C 85% Calm Calm -- 30.00 in1015.9 mb - 0.00 in0.0 mm 0.14 in3.6 mm
06:20 PM 69.1°F20.6°C 62.7°F17.1°C 80% Calm Calm -- 30.00 in1015.9 mb - 0.00 in0.0 mm 0.14 in3.6 mm
06:30 PM 68.8°F20.4°C 62.4°F16.9°C 80% Calm Calm -- 30.00 in1015.9 mb - 0.00 in0.0 mm 0.14 in3.6 mm
06:40 PM 68.5°F20.3°C 62.5°F16.9°C 81% Calm Calm -- 30.00 in1015.9 mb - 0.00 in0.0 mm 0.14 in3.6 mm
06:50 PM 68.2°F20.1°C 62.5°F16.9°C 82% 2.3 mph SSW3.7 kmh SSW 3.5 mph5.6 kmh 30.00 in1015.9 mb - 0.00 in0.0 mm 0.14 in3.6 mm
07:00 PM 67.8°F19.9°C 62.1°F16.7°C 82% Calm Calm -- 30.00 in1015.9 mb - 0.00 in0.0 mm 0.14 in3.6 mm
07:10 PM 67.3°F19.6°C 61.9°F16.6°C 83% 1.2 mph SW1.9 kmh SW 2.3 mph3.7 kmh 30.00 in1015.9 mb - 0.00 in0.0 mm 0.14 in3.6 mm
07:20 PM 67.1°F19.5°C 62.4°F16.9°C 85% Calm Calm -- 30.00 in1015.9 mb - 0.00 in0.0 mm 0.14 in3.6 mm
07:30 PM 66.7°F19.3°C 63.1°F17.3°C 88% Calm Calm -- 30.00 in1015.9 mb - 0.00 in0.0 mm 0.14 in3.6 mm
07:40 PM 66.4°F19.1°C 63.0°F17.2°C 89% 1.2 mph WSW1.9 kmh WSW 2.3 mph3.7 kmh 30.00 in1015.9 mb - 0.00 in0.0 mm 0.14 in3.6 mm
07:50 PM 65.4°F18.6°C 62.1°F16.7°C 89% 2.3 mph SE3.7 kmh SE 3.5 mph5.6 kmh 30.00 in1015.9 mb - 0.00 in0.0 mm 0.14 in3.6 mm
08:00 PM 64.7°F18.2°C 61.1°F16.2°C 88% Calm Calm 2.3 mph3.7 kmh 30.00 in1015.9 mb - 0.00 in0.0 mm 0.14 in3.6 mm
08:10 PM 64.2°F17.9°C 60.6°F15.9°C 88% 3.5 mph SSE5.6 kmh SSE 3.5 mph5.6 kmh 30.00 in1015.9 mb - 0.00 in0.0 mm 0.14 in3.6 mm
08:20 PM 63.9°F17.7°C 59.9°F15.5°C 87% Calm Calm -- 30.00 in1015.9 mb - 0.00 in0.0 mm 0.14 in3.6 mm
08:30 PM 63.4°F17.4°C 59.5°F15.3°C 87% Calm Calm -- 30.03 in1016.9 mb - 0.00 in0.0 mm 0.14 in3.6 mm
08:40 PM 63.1°F17.3°C 59.5°F15.3°C 88% Calm Calm -- 30.03 in1016.9 mb - 0.00 in0.0 mm 0.14 in3.6 mm
08:50 PM 62.6°F17.0°C 59.4°F15.2°C 89% Calm Calm -- 30.03 in1016.9 mb - 0.00 in0.0 mm 0.14 in3.6 mm
09:00 PM 62.2°F16.8°C 59.2°F15.1°C 90% Calm Calm -- 30.03 in1016.9 mb - 0.00 in0.0 mm 0.14 in3.6 mm
09:10 PM 61.7°F16.5°C 59.0°F15.0°C 91% Calm Calm -- 30.03 in1016.9 mb - 0.00 in0.0 mm 0.14 in3.6 mm
09:20 PM 61.3°F16.3°C 58.7°F14.8°C 91% Calm Calm -- 30.03 in1016.9 mb - 0.00 in0.0 mm 0.14 in3.6 mm
09:30 PM 60.9°F16.1°C 58.5°F14.7°C 92% Calm Calm -- 30.03 in1016.9 mb - 0.00 in0.0 mm 0.14 in3.6 mm
09:40 PM 60.6°F15.9°C 58.3°F14.6°C 92% Calm Calm -- 30.03 in1016.9 mb - 0.00 in0.0 mm 0.14 in3.6 mm
09:50 PM 60.4°F15.8°C 58.4°F14.7°C 93% Calm Calm -- 30.03 in1016.9 mb - 0.00 in0.0 mm 0.14 in3.6 mm
10:00 PM 60.3°F15.7°C 58.5°F14.7°C 94% Calm Calm -- 30.03 in1016.9 mb - 0.00 in0.0 mm 0.14 in3.6 mm
10:10 PM 60.0°F15.6°C 58.2°F14.6°C 94% Calm Calm -- 30.03 in1016.9 mb - 0.00 in0.0 mm 0.14 in3.6 mm
10:20 PM 59.7°F15.4°C 58.3°F14.6°C 95% Calm Calm -- 30.03 in1016.9 mb - 0.00 in0.0 mm 0.14 in3.6 mm
10:30 PM 59.4°F15.2°C 57.9°F14.4°C 95% Calm Calm -- 30.03 in1016.9 mb - 0.00 in0.0 mm 0.14 in3.6 mm
10:40 PM 59.0°F15.0°C 57.9°F14.4°C 96% Calm Calm -- 30.03 in1016.9 mb - 0.00 in0.0 mm 0.14 in3.6 mm
10:50 PM 58.8°F14.9°C 57.7°F14.3°C 96% Calm Calm -- 30.03 in1016.9 mb - 0.00 in0.0 mm 0.14 in3.6 mm
11:00 PM 58.6°F14.8°C 57.8°F14.3°C 97% Calm Calm -- 30.03 in1016.9 mb - 0.00 in0.0 mm 0.84 in21.3 mm
11:10 PM 58.5°F14.7°C 57.6°F14.2°C 97% Calm Calm -- 30.03 in1016.9 mb - 0.00 in0.0 mm 0.84 in21.3 mm
11:20 PM 58.2°F14.6°C 57.6°F14.2°C 98% Calm Calm -- 30.03 in1016.9 mb - 0.00 in0.0 mm 0.84 in21.3 mm
11:30 PM 58.1°F14.5°C 57.5°F14.2°C 98% Calm Calm -- 30.03 in1016.9 mb - 0.00 in0.0 mm 0.84 in21.3 mm
11:40 PM 57.9°F14.4°C 57.4°F14.1°C 98% Calm Calm -- 30.03 in1016.9 mb - 0.00 in0.0 mm 0.84 in21.3 mm
11:50 PM 57.7°F14.3°C 57.2°F14.0°C 98% Calm Calm -- 30.03 in1016.9 mb - 0.00 in0.0 mm 0.84 in21.3 mm